createdAt,value
2019-04-23T00:01:14.685Z,9.88
2019-04-23T00:03:34.605Z,9.10
2019-04-23T00:06:52.346Z,10.15
2019-04-23T00:08:50.115Z,9.85
2019-04-23T00:11:22.212Z,11.18
2019-04-23T00:13:52.085Z,10.08
2019-04-23T00:16:41.782Z,9.75
2019-04-23T00:18:49.763Z,10.72
2019-04-23T00:21:57.477Z,9.98
2019-04-23T00:25:19.315Z,10.30
2019-04-23T00:27:29.518Z,8.95
2019-04-23T00:30:04.382Z,9.63
2019-04-23T00:40:23.753Z,9.68
2019-04-23T00:45:08.293Z,9.30
2019-04-23T00:47:45.036Z,9.18
2019-04-23T00:52:45.787Z,9.45
2019-04-23T00:55:26.713Z,9.88
2019-04-23T00:57:57.802Z,9.23
2019-04-23T01:05:39.276Z,8.40
2019-04-23T01:08:13.303Z,8.88
2019-04-23T01:10:52.263Z,9.15
2019-04-23T01:13:22.750Z,9.58
2019-04-23T01:15:53.717Z,9.70
2019-04-23T01:18:45.949Z,9.00
2019-04-23T01:20:54.063Z,9.50
2019-04-23T01:23:54.865Z,9.05
2019-04-23T01:26:42.094Z,9.73
2019-04-23T01:29:20.217Z,9.93
2019-04-23T01:31:51.948Z,10.10
2019-04-23T01:34:25.753Z,9.35
2019-04-23T01:36:56.403Z,8.88
2019-04-23T01:39:27.457Z,10.32
2019-04-23T01:42:18.104Z,10.20
2019-04-23T01:44:46.183Z,10.13
2019-04-23T01:47:12.454Z,9.95
2019-04-23T01:49:58.204Z,10.63
2019-04-23T01:52:29.375Z,9.88
2019-04-23T01:54:52.227Z,10.25
2019-04-23T01:57:28.950Z,10.05
2019-04-23T02:00:03.341Z,10.78
2019-04-23T02:02:37.360Z,11.38
2019-04-23T02:05:09.879Z,10.58
2019-04-23T02:07:45.941Z,10.95
2019-04-23T02:12:54.058Z,13.60
2019-04-23T02:15:17.016Z,11.33
2019-04-23T02:18:00.408Z,9.98
2019-04-23T02:23:30.088Z,11.15
2019-04-23T02:25:50.907Z,11.13
2019-04-23T02:28:35.490Z,10.70
2019-04-23T02:33:44.572Z,11.20
2019-04-23T02:38:45.279Z,10.95
2019-04-23T02:43:46.412Z,11.60
2019-04-23T02:46:09.248Z,10.90
2019-04-23T02:49:01.627Z,10.72
2019-04-23T02:51:31.117Z,11.38
2019-04-23T02:56:37.511Z,11.70
2019-04-23T02:59:14.531Z,10.68
2019-04-23T03:01:49.490Z,11.47
2019-04-23T03:06:48.125Z,11.13
2019-04-23T03:09:23.749Z,11.65
2019-04-23T03:14:27.122Z,12.10
2019-04-23T03:19:55.221Z,12.07
2019-04-23T03:22:35.526Z,12.20
2019-04-23T03:27:50.040Z,12.20
2019-04-23T03:32:30.440Z,12.20
2019-04-23T03:34:04.275Z,11.88
2019-04-23T03:38:45.773Z,11.53
2019-04-23T03:43:33.655Z,13.50
2019-04-23T03:46:16.318Z,13.22
2019-04-23T03:51:01.267Z,12.13
2019-04-23T03:54:11.653Z,12.03
2019-04-23T03:56:23.211Z,11.73
2019-04-23T03:58:49.278Z,12.80
2019-04-23T04:09:14.911Z,12.55
2019-04-23T04:11:25.464Z,12.68
2019-04-23T04:14:21.063Z,12.13
2019-04-23T04:16:42.580Z,12.47
2019-04-23T04:19:31.664Z,12.75
2019-04-23T04:21:52.538Z,13.13
2019-04-23T04:26:59.484Z,13.85
2019-04-23T04:29:30.085Z,12.85
2019-04-23T04:34:56.090Z,12.53
2019-04-23T04:39:42.375Z,12.53
2019-04-23T04:42:12.040Z,12.25
2019-04-23T04:44:52.382Z,23.52
2019-04-23T04:47:32.448Z,16.45
2019-04-23T04:49:55.676Z,12.13
2019-04-23T04:52:33.584Z,12.07
2019-04-23T04:54:51.867Z,12.80
2019-04-23T05:00:17.726Z,12.80
2019-04-23T05:05:20.633Z,14.53
2019-04-23T05:08:00.897Z,12.65
2019-04-23T05:12:53.994Z,12.05
2019-04-23T05:15:18.201Z,12.60
2019-04-23T05:18:19.443Z,14.05
2019-04-23T05:23:22.946Z,11.85
2019-04-23T05:25:51.326Z,11.97
2019-04-23T05:28:29.955Z,12.10
2019-04-23T05:31:00.040Z,11.48
2019-04-23T05:33:28.834Z,12.03
2019-04-23T05:36:26.622Z,11.80
2019-04-23T05:38:59.451Z,15.75
2019-04-23T05:43:57.236Z,11.93
2019-04-23T05:49:03.965Z,11.53
2019-04-23T05:51:48.899Z,11.88
2019-04-23T05:54:14.083Z,12.23
2019-04-23T05:56:43.790Z,11.90
2019-04-23T05:59:16.308Z,11.25
2019-04-23T06:04:32.963Z,11.57
2019-04-23T06:07:22.159Z,11.38
2019-04-23T06:09:41.538Z,11.30
2019-04-23T06:14:55.547Z,11.60
2019-04-23T06:17:21.355Z,12.58
2019-04-23T06:20:04.371Z,11.12
2019-04-23T06:22:35.205Z,11.90
2019-04-23T06:25:15.097Z,11.95
2019-04-23T06:27:40.161Z,11.75
2019-04-23T06:30:17.966Z,11.30
2019-04-23T06:32:46.346Z,11.57
2019-04-23T06:35:23.787Z,11.65
2019-04-23T06:43:22.559Z,11.87
2019-04-23T06:45:49.366Z,11.67
2019-04-23T06:48:30.251Z,10.72
2019-04-23T06:51:09.436Z,10.90
2019-04-23T06:53:28.892Z,11.45
2019-04-23T06:56:13.976Z,11.08
2019-04-23T06:58:45.611Z,11.07
2019-04-23T07:01:19.173Z,10.75
2019-04-23T07:03:56.950Z,10.80
2019-04-23T07:06:29.836Z,11.35
2019-04-23T07:11:42.955Z,10.70
2019-04-23T07:14:07.318Z,9.60
2019-04-23T07:16:51.241Z,11.43
2019-04-23T07:19:31.722Z,11.23
2019-04-23T07:22:06.379Z,11.20
2019-04-23T07:24:33.144Z,10.55
2019-04-23T07:27:11.735Z,10.40
2019-04-23T07:29:43.557Z,10.47
2019-04-23T07:32:15.599Z,10.68
2019-04-23T07:35:02.467Z,10.47
2019-04-23T07:37:31.886Z,10.90
2019-04-23T07:46:05.357Z,11.18
2019-04-23T07:48:29.227Z,10.23
2019-04-23T07:51:06.136Z,9.47
2019-04-23T07:53:46.767Z,9.20
2019-04-23T07:56:13.119Z,10.10
2019-04-23T07:58:44.607Z,11.28
2019-04-23T08:01:17.531Z,9.53
2019-04-23T08:03:55.949Z,9.75
2019-04-23T08:06:21.366Z,10.03
2019-04-23T08:09:00.878Z,9.58
2019-04-23T08:11:42.593Z,9.18
2019-04-23T08:14:02.069Z,9.50
2019-04-23T08:16:52.239Z,9.58
2019-04-23T08:19:07.337Z,8.33
2019-04-23T08:21:43.835Z,9.58
2019-04-23T08:24:51.058Z,9.13
2019-04-23T08:27:32.839Z,9.23
2019-04-23T08:29:55.845Z,9.13
2019-04-23T08:32:21.460Z,8.70
2019-04-23T08:40:13.203Z,8.95
2019-04-23T08:43:00.926Z,9.28
2019-04-23T08:45:29.654Z,9.45
2019-04-23T08:48:29.077Z,8.85
2019-04-23T08:53:29.699Z,8.85
2019-04-23T08:55:53.729Z,8.60
2019-04-23T08:58:34.020Z,8.48
2019-04-23T09:00:58.590Z,9.18
2019-04-23T09:03:30.140Z,8.13
2019-04-23T09:06:09.684Z,8.48
2019-04-23T09:08:39.340Z,8.95
2019-04-23T09:16:16.308Z,8.33
2019-04-23T09:18:47.357Z,8.38
2019-04-23T09:21:21.286Z,8.13
2019-04-23T09:24:00.316Z,8.23
2019-04-23T09:26:27.646Z,8.13
2019-04-23T09:29:01.103Z,8.98
2019-04-23T09:32:07.449Z,8.55
2019-04-23T09:34:46.532Z,7.87
2019-04-23T09:37:37.125Z,7.87
2019-04-23T09:40:18.842Z,8.35
2019-04-23T09:45:41.077Z,8.53
2019-04-23T09:48:26.534Z,8.00
2019-04-23T09:50:50.867Z,8.50
2019-04-23T09:53:37.277Z,8.65
2019-04-23T09:55:48.689Z,7.83
2019-04-23T09:58:21.908Z,9.65
2019-04-23T10:01:23.488Z,8.23
2019-04-23T10:03:39.129Z,7.90
2019-04-23T10:06:05.969Z,8.85
2019-04-23T10:08:36.454Z,8.65
2019-04-23T10:11:05.092Z,9.60
2019-04-23T10:13:36.614Z,7.37
2019-04-23T10:16:11.702Z,8.53
2019-04-23T10:18:45.119Z,8.13
2019-04-23T10:21:17.476Z,8.50
2019-04-23T10:23:49.600Z,8.23
2019-04-23T10:26:21.995Z,7.10
2019-04-23T10:28:56.626Z,8.13
2019-04-23T10:31:29.145Z,8.03
2019-04-23T10:34:01.961Z,8.68
2019-04-23T10:36:34.574Z,8.23
2019-04-23T10:39:14.607Z,8.65
2019-04-23T10:41:45.408Z,7.87
2019-04-23T10:44:40.763Z,7.45
2019-04-23T10:48:02.975Z,9.65
2019-04-23T10:50:40.306Z,8.23
2019-04-23T10:53:24.538Z,8.50
2019-04-23T10:55:46.733Z,8.50
2019-04-23T10:58:15.729Z,8.53
2019-04-23T11:00:55.720Z,7.72
2019-04-23T11:03:45.208Z,7.72
2019-04-23T11:08:36.944Z,8.00
2019-04-23T11:11:14.729Z,9.00
2019-04-23T11:13:53.536Z,8.13
2019-04-23T11:16:45.804Z,8.53
2019-04-23T11:24:11.807Z,9.10
2019-04-23T11:26:42.974Z,8.60
2019-04-23T11:29:17.724Z,8.33
2019-04-23T11:31:48.782Z,8.05
2019-04-23T11:36:54.323Z,8.63
2019-04-23T11:39:23.494Z,7.85
2019-04-23T11:41:59.956Z,7.45
2019-04-23T11:44:41.520Z,9.18
2019-04-23T11:47:09.176Z,8.30
2019-04-23T11:52:08.337Z,8.28
2019-04-23T11:54:36.049Z,8.38
2019-04-23T11:59:51.881Z,8.30
2019-04-23T12:02:38.916Z,7.67
2019-04-23T12:08:16.942Z,8.95
2019-04-23T12:11:08.433Z,7.83
2019-04-23T12:13:26.895Z,9.15
2019-04-23T12:21:12.924Z,8.53
2019-04-23T12:26:29.749Z,8.30
2019-04-23T12:28:53.114Z,8.38
2019-04-23T12:31:28.407Z,8.68
2019-04-23T12:34:01.077Z,8.45
2019-04-23T12:36:37.713Z,8.58
2019-04-23T12:39:11.361Z,8.50
2019-04-23T12:41:43.333Z,8.08
2019-04-23T12:44:31.564Z,9.78
2019-04-23T12:46:51.507Z,8.83
2019-04-23T12:49:34.788Z,8.88
2019-04-23T12:51:53.782Z,8.80
2019-04-23T12:54:48.368Z,9.68
2019-04-23T12:57:05.305Z,8.95
2019-04-23T12:59:28.648Z,9.53
2019-04-23T13:02:15.503Z,9.55
2019-04-23T13:04:42.086Z,10.58
2019-04-23T13:07:17.559Z,9.45
2019-04-23T13:10:01.537Z,9.68
2019-04-23T13:12:32.820Z,9.28
2019-04-23T13:14:56.082Z,9.65
2019-04-23T13:20:00.498Z,9.35
2019-04-23T13:28:06.473Z,10.58
2019-04-23T13:30:51.332Z,9.60
2019-04-23T13:33:31.877Z,10.35
2019-04-23T13:41:01.461Z,9.28
2019-04-23T13:43:39.743Z,9.63
2019-04-23T13:48:30.080Z,10.28
2019-04-23T13:51:19.782Z,9.05
2019-04-23T13:53:53.560Z,9.25
2019-04-23T13:56:47.236Z,9.00
2019-04-23T13:58:51.227Z,8.56
2019-04-23T14:04:00.119Z,9.13
2019-04-23T14:09:34.312Z,9.07
2019-04-23T14:11:30.745Z,10.90
2019-04-23T14:14:25.022Z,8.95
2019-04-23T14:16:59.760Z,10.05
2019-04-23T14:19:21.548Z,8.93
2019-04-23T14:22:18.451Z,9.73
2019-04-23T14:24:38.914Z,9.20
2019-04-23T14:27:09.611Z,9.20
2019-04-23T14:29:42.861Z,9.63
2019-04-23T14:32:20.827Z,10.40
2019-04-23T14:34:54.561Z,9.97
2019-04-23T14:39:52.369Z,9.53
2019-04-23T14:42:36.442Z,9.98
2019-04-23T14:45:13.099Z,9.65
2019-04-23T14:50:22.901Z,10.35
2019-04-23T14:52:50.438Z,10.30
2019-04-23T14:55:40.586Z,9.75
2019-04-23T14:57:55.814Z,9.53
2019-04-23T15:02:59.127Z,9.40
2019-04-23T15:05:27.654Z,9.73
2019-04-23T15:07:58.498Z,10.32
2019-04-23T15:10:32.586Z,11.08
2019-04-23T15:13:08.659Z,10.37
2019-04-23T15:15:37.802Z,10.20
2019-04-23T15:18:28.451Z,10.43
2019-04-23T15:21:29.206Z,10.60
2019-04-23T15:27:10.355Z,10.18
2019-04-23T15:28:20.300Z,9.47
2019-04-23T15:31:21.242Z,10.15
2019-04-23T15:36:38.916Z,10.75
2019-04-23T15:39:13.798Z,11.63
2019-04-23T15:41:40.470Z,10.55
2019-04-23T15:44:14.809Z,11.30
2019-04-23T15:51:52.957Z,11.23
2019-04-23T15:54:29.950Z,11.38
2019-04-23T15:56:55.134Z,11.35
2019-04-23T15:59:43.940Z,10.93
2019-04-23T16:01:41.079Z,11.73
2019-04-23T16:04:05.344Z,11.45
2019-04-23T16:06:38.793Z,12.13
2019-04-23T16:09:38.780Z,12.15
2019-04-23T16:12:03.565Z,12.55
2019-04-23T16:14:58.484Z,12.50
2019-04-23T16:20:54.469Z,12.05
2019-04-23T16:22:55.226Z,13.13
2019-04-23T16:25:26.391Z,12.78
2019-04-23T16:28:09.358Z,12.28
2019-04-23T16:30:39.752Z,13.55
2019-04-23T16:36:07.385Z,11.78
2019-04-23T16:38:45.342Z,11.95
2019-04-23T16:41:07.650Z,11.33
2019-04-23T16:43:38.253Z,11.57
2019-04-23T16:46:11.936Z,11.30
2019-04-23T16:49:02.853Z,10.95
2019-04-23T16:53:46.034Z,11.83
2019-04-23T16:56:25.974Z,11.85
2019-04-23T16:59:10.297Z,11.77
2019-04-23T17:01:28.061Z,12.33
2019-04-23T17:04:03.656Z,11.73
2019-04-23T17:06:36.119Z,11.48
2019-04-23T17:09:09.521Z,11.80
2019-04-23T17:11:41.654Z,11.93
2019-04-23T17:14:13.369Z,11.73
2019-04-23T17:16:42.461Z,12.27
2019-04-23T17:19:25.603Z,12.20
2019-04-23T17:21:58.166Z,12.57
2019-04-23T17:24:23.292Z,14.25
2019-04-23T17:27:00.866Z,12.40
2019-04-23T17:29:35.233Z,12.30
2019-04-23T17:32:06.040Z,12.78
2019-04-23T17:40:08.390Z,12.50
2019-04-23T17:42:56.735Z,12.10
2019-04-23T17:48:12.871Z,13.38
2019-04-23T17:50:52.325Z,12.93
2019-04-23T17:53:26.531Z,12.10
2019-04-23T18:01:31.205Z,13.62
2019-04-23T18:04:22.593Z,13.58
2019-04-23T18:06:57.637Z,14.40
2019-04-23T18:09:27.794Z,13.43
2019-04-23T18:14:16.556Z,13.40
2019-04-23T18:16:57.575Z,13.25
2019-04-23T18:19:37.679Z,13.00
2019-04-23T18:22:22.218Z,12.05
2019-04-23T18:25:17.120Z,13.13
2019-04-23T18:36:08.078Z,13.65
2019-04-23T18:38:46.605Z,13.43
2019-04-23T18:41:10.729Z,14.28
2019-04-23T18:44:13.330Z,13.43
2019-04-23T18:46:43.549Z,13.90
2019-04-23T18:49:20.228Z,13.57
2019-04-23T18:51:55.468Z,14.33
2019-04-23T18:54:24.383Z,13.58
2019-04-23T18:57:36.796Z,15.38
2019-04-23T18:59:37.220Z,15.25
2019-04-23T19:02:17.330Z,15.30
2019-04-23T19:05:04.687Z,14.30
2019-04-23T19:10:31.662Z,14.73
2019-04-23T19:13:12.664Z,14.75
2019-04-23T19:15:38.281Z,15.00
2019-04-23T19:18:14.553Z,14.00
2019-04-23T19:23:28.871Z,15.35
2019-04-23T19:25:49.827Z,14.68
2019-04-23T19:31:20.147Z,14.07
2019-04-23T19:34:14.447Z,14.43
2019-04-23T19:36:52.650Z,13.95
2019-04-23T19:39:21.412Z,14.58
2019-04-23T19:41:55.391Z,13.90
2019-04-23T19:47:02.791Z,12.73
2019-04-23T19:49:32.697Z,13.45
2019-04-23T19:52:00.988Z,13.43
2019-04-23T19:54:42.677Z,12.20
2019-04-23T19:57:22.280Z,12.13
2019-04-23T19:59:45.062Z,11.13
2019-04-23T20:02:18.152Z,11.38
2019-04-23T20:04:47.184Z,10.00
2019-04-23T20:09:51.761Z,11.15
2019-04-23T20:12:26.815Z,10.85
2019-04-23T20:14:58.521Z,10.72
2019-04-23T20:17:52.329Z,11.38
2019-04-23T20:20:10.322Z,11.08
2019-04-23T20:22:48.512Z,11.60
2019-04-23T20:28:01.985Z,11.57
2019-04-23T20:31:05.412Z,11.53
2019-04-23T20:35:56.663Z,11.75
2019-04-23T20:38:31.467Z,10.90
2019-04-23T20:41:05.779Z,11.40
2019-04-23T20:49:08.909Z,12.53
2019-04-23T20:51:08.228Z,10.70
2019-04-23T20:53:50.580Z,10.68
2019-04-23T20:58:59.731Z,9.65
2019-04-23T21:02:02.547Z,10.00
2019-04-23T21:04:28.192Z,10.50
2019-04-23T21:06:57.957Z,9.13
2019-04-23T21:09:44.650Z,9.00
2019-04-23T21:12:18.625Z,9.23
2019-04-23T21:15:03.163Z,8.80
2019-04-23T21:17:14.311Z,9.18
2019-04-23T21:20:01.133Z,9.33
2019-04-23T21:30:03.042Z,9.00
2019-04-23T21:35:16.765Z,10.53
2019-04-23T21:41:02.251Z,10.20
2019-04-23T21:43:52.755Z,8.83
2019-04-23T21:46:17.096Z,9.90
2019-04-23T21:51:28.450Z,9.20
2019-04-23T21:58:57.987Z,9.40
2019-04-23T22:01:32.107Z,11.10
2019-04-23T22:06:47.499Z,10.16
2019-04-23T22:24:21.202Z,9.48
2019-04-23T22:26:54.806Z,9.90
2019-04-23T22:29:35.824Z,9.30
2019-04-23T22:31:53.813Z,9.80
2019-04-23T22:34:43.207Z,9.83
2019-04-23T22:39:45.928Z,8.67
2019-04-23T22:42:36.354Z,8.90
2019-04-23T22:47:28.428Z,8.15
2019-04-23T22:52:33.875Z,8.50
2019-04-23T22:55:07.302Z,8.35
2019-04-23T23:06:10.671Z,7.87
2019-04-23T23:08:31.698Z,7.58
2019-04-23T23:10:57.513Z,7.45
2019-04-23T23:13:35.358Z,7.47
2019-04-23T23:21:19.193Z,7.25
2019-04-23T23:23:39.509Z,7.47
2019-04-23T23:28:45.360Z,7.37
2019-04-23T23:33:54.195Z,7.00
2019-04-23T23:36:28.441Z,6.75
2019-04-23T23:41:35.845Z,7.55
2019-04-23T23:49:13.749Z,7.45
2019-04-23T23:51:45.078Z,7.20
2019-04-23T23:57:01.377Z,7.90
2019-04-23T23:59:27.084Z,7.42
